createdAt,value
2023-01-17T00:00:12.250Z,1.13
2023-01-17T00:02:39.492Z,1.20
2023-01-17T00:05:28.940Z,1.50
2023-01-17T00:08:14.769Z,1.50
2023-01-17T00:10:42.813Z,1.43
2023-01-17T00:13:09.957Z,2.20
2023-01-17T00:15:40.312Z,2.27
2023-01-17T00:18:10.479Z,1.97
2023-01-17T00:20:57.335Z,1.93
2023-01-17T00:23:44.613Z,2.17
2023-01-17T00:26:19.575Z,1.77
2023-01-17T00:28:47.656Z,1.80
2023-01-17T00:31:17.171Z,1.90
2023-01-17T00:33:44.640Z,1.80
2023-01-17T00:36:12.079Z,1.70
2023-01-17T00:38:40.557Z,1.63
2023-01-17T00:41:13.776Z,1.80
2023-01-17T00:43:59.711Z,1.50
2023-01-17T00:46:45.543Z,2.00
2023-01-17T00:49:31.520Z,2.20
2023-01-17T00:52:19.768Z,2.30
2023-01-17T00:55:05.559Z,1.90
2023-01-17T00:57:51.211Z,1.80
2023-01-17T01:00:38.090Z,2.10
2023-01-17T01:03:30.747Z,1.70
2023-01-17T01:06:16.717Z,1.90
2023-01-17T01:09:03.671Z,2.10
2023-01-17T01:11:49.796Z,1.90
2023-01-17T01:14:35.570Z,1.77
2023-01-17T01:17:21.566Z,2.00
2023-01-17T01:20:07.462Z,1.73
2023-01-17T01:22:53.130Z,1.80
2023-01-17T01:25:39.160Z,1.60
2023-01-17T01:28:30.345Z,1.43
2023-01-17T01:31:19.781Z,1.40
2023-01-17T01:33:47.180Z,1.53
2023-01-17T01:36:19.403Z,1.20
2023-01-17T01:38:50.787Z,1.17
2023-01-17T01:49:39.169Z,0.90
2023-01-17T01:52:09.042Z,1.00
2023-01-17T01:54:44.868Z,0.80
2023-01-17T01:57:18.623Z,0.80
2023-01-17T01:59:56.508Z,0.90
2023-01-17T02:02:27.563Z,0.80
2023-01-17T02:04:54.804Z,0.80
2023-01-17T02:07:34.595Z,0.90
2023-01-17T02:10:03.679Z,0.90
2023-01-17T02:12:31.647Z,0.90
2023-01-17T02:15:00.208Z,1.13
2023-01-17T02:17:44.093Z,0.90
2023-01-17T02:21:03.608Z,0.90
2023-01-17T02:23:36.405Z,0.80
2023-01-17T02:26:45.812Z,0.87
2023-01-17T02:29:57.761Z,0.90
2023-01-17T02:32:52.063Z,0.97
2023-01-17T02:35:20.509Z,0.93
2023-01-17T02:38:38.270Z,1.00
2023-01-17T02:41:33.062Z,1.10
2023-01-17T02:44:03.777Z,1.00
2023-01-17T02:46:31.408Z,1.30
2023-01-17T02:49:00.702Z,1.20
2023-01-17T02:51:43.660Z,1.40
2023-01-17T02:54:45.751Z,1.37
2023-01-17T02:57:40.057Z,1.30
2023-01-17T03:00:15.173Z,2.33
2023-01-17T03:02:56.016Z,2.03
2023-01-17T03:05:48.749Z,1.60
2023-01-17T03:08:17.493Z,1.90
2023-01-17T03:10:46.229Z,1.80
2023-01-17T03:13:14.156Z,2.20
2023-01-17T03:15:41.654Z,2.17
2023-01-17T03:18:16.130Z,1.90
2023-01-17T03:20:43.422Z,2.17
2023-01-17T03:23:10.623Z,1.50
2023-01-17T03:25:37.840Z,1.60
2023-01-17T03:28:05.452Z,1.40
2023-01-17T03:30:32.716Z,1.87
2023-01-17T03:32:59.906Z,1.40
2023-01-17T03:35:28.712Z,1.50
2023-01-17T03:37:56.476Z,1.50
2023-01-17T03:40:24.001Z,1.27
2023-01-17T03:42:51.379Z,1.70
2023-01-17T03:45:18.679Z,1.77
2023-01-17T03:47:46.983Z,1.40
2023-01-17T03:50:17.163Z,1.30
2023-01-17T03:52:44.492Z,1.53
2023-01-17T03:55:11.753Z,1.53
2023-01-17T03:57:39.186Z,1.50
2023-01-17T04:00:07.445Z,1.50
2023-01-17T04:02:35.031Z,1.20
2023-01-17T04:05:05.530Z,1.70
2023-01-17T04:07:32.777Z,1.57
2023-01-17T04:10:00.099Z,1.77
2023-01-17T04:12:27.358Z,1.70
2023-01-17T04:14:54.618Z,1.90
2023-01-17T04:17:21.922Z,1.80
2023-01-17T04:19:49.334Z,1.87
2023-01-17T04:22:18.014Z,1.90
2023-01-17T04:24:48.335Z,1.63
2023-01-17T04:27:16.237Z,1.93
2023-01-17T04:29:45.882Z,1.70
2023-01-17T04:32:15.014Z,2.10
2023-01-17T04:34:42.356Z,1.87
2023-01-17T04:37:09.551Z,2.30
2023-01-17T04:39:39.523Z,2.17
2023-01-17T04:42:06.823Z,2.07
2023-01-17T04:44:34.048Z,2.20
2023-01-17T04:47:02.182Z,2.00
2023-01-17T04:49:29.497Z,2.70
2023-01-17T04:51:56.798Z,2.87
2023-01-17T04:54:24.036Z,3.17
2023-01-17T04:56:52.542Z,3.07
2023-01-17T04:59:19.785Z,3.50
2023-01-17T05:01:49.658Z,3.67
2023-01-17T05:04:17.267Z,4.03
2023-01-17T05:06:44.892Z,3.97
2023-01-17T05:09:12.178Z,5.40
2023-01-17T05:11:41.510Z,4.70
2023-01-17T05:14:12.909Z,4.77
2023-01-17T05:16:40.057Z,5.20
2023-01-17T05:19:07.267Z,5.97
2023-01-17T05:21:34.508Z,5.87
2023-01-17T05:24:01.663Z,6.27
2023-01-17T05:26:28.790Z,5.47
2023-01-17T05:28:56.184Z,5.60
2023-01-17T05:31:23.402Z,5.60
2023-01-17T05:33:50.791Z,5.80
2023-01-17T05:36:19.224Z,5.50
2023-01-17T05:38:48.168Z,5.93
2023-01-17T05:41:15.319Z,6.17
2023-01-17T05:43:42.528Z,6.20
2023-01-17T05:46:09.708Z,6.17
2023-01-17T05:48:36.935Z,6.47
2023-01-17T05:51:04.251Z,6.47
2023-01-17T05:53:31.456Z,6.50
2023-01-17T05:55:58.654Z,6.63
2023-01-17T05:58:25.993Z,7.47
2023-01-17T06:00:55.995Z,6.97
2023-01-17T06:03:24.540Z,7.40
2023-01-17T06:05:52.894Z,6.90
2023-01-17T06:08:20.228Z,6.90
2023-01-17T06:10:47.629Z,7.13
2023-01-17T06:13:16.837Z,6.47
2023-01-17T06:15:46.892Z,7.43
2023-01-17T06:18:16.975Z,7.00
2023-01-17T06:20:45.058Z,6.17
2023-01-17T06:23:14.838Z,6.97
2023-01-17T06:25:46.488Z,6.70
2023-01-17T06:28:24.581Z,7.23
2023-01-17T06:30:51.998Z,6.73
2023-01-17T06:33:24.791Z,6.90
2023-01-17T06:37:14.122Z,7.37
2023-01-17T06:40:01.074Z,6.73
2023-01-17T06:42:28.371Z,6.97
2023-01-17T06:44:55.547Z,7.20
2023-01-17T06:47:22.886Z,7.03
2023-01-17T06:49:50.035Z,6.77
2023-01-17T06:52:17.337Z,7.00
2023-01-17T06:54:44.568Z,7.30
2023-01-17T06:57:14.844Z,7.17
2023-01-17T06:59:44.291Z,6.80
2023-01-17T07:02:12.158Z,6.80
2023-01-17T07:04:39.429Z,6.80
2023-01-17T07:07:06.782Z,7.50
2023-01-17T07:09:34.035Z,6.87
2023-01-17T07:12:02.194Z,7.20
2023-01-17T07:14:30.093Z,7.37
2023-01-17T07:16:57.927Z,7.17
2023-01-17T07:19:25.780Z,7.37
2023-01-17T07:21:54.680Z,7.60
2023-01-17T07:24:25.596Z,7.67
2023-01-17T07:26:52.993Z,7.90
2023-01-17T07:29:20.349Z,7.13
2023-01-17T07:31:49.691Z,7.33
2023-01-17T07:34:19.594Z,7.40
2023-01-17T07:36:49.896Z,7.97
2023-01-17T07:39:17.519Z,7.93
2023-01-17T07:41:47.811Z,7.63
2023-01-17T07:44:17.700Z,8.13
2023-01-17T07:46:44.976Z,8.60
2023-01-17T07:49:13.844Z,7.60
2023-01-17T07:51:41.132Z,8.57
2023-01-17T07:54:08.426Z,8.13
2023-01-17T07:56:35.854Z,8.57
2023-01-17T07:59:06.854Z,8.43
2023-01-17T08:01:35.073Z,8.33
2023-01-17T08:04:03.745Z,8.07
2023-01-17T08:06:33.950Z,8.83
2023-01-17T08:09:01.549Z,9.60
2023-01-17T08:11:31.942Z,9.57
2023-01-17T08:14:00.269Z,9.00
2023-01-17T08:16:30.049Z,8.10
2023-01-17T08:18:57.746Z,8.93
2023-01-17T08:21:25.242Z,9.10
2023-01-17T08:23:52.988Z,9.10
2023-01-17T08:26:22.681Z,9.13
2023-01-17T08:29:00.990Z,9.97
2023-01-17T08:31:32.305Z,9.43
2023-01-17T08:34:00.308Z,9.30
2023-01-17T08:36:35.878Z,9.93
2023-01-17T08:39:03.063Z,9.77
2023-01-17T08:41:30.374Z,9.37
2023-01-17T08:44:00.420Z,9.47
2023-01-17T08:46:28.314Z,9.00
2023-01-17T08:49:03.008Z,8.77
2023-01-17T08:51:32.616Z,9.50
2023-01-17T08:54:02.832Z,8.60
2023-01-17T08:56:30.048Z,9.10
2023-01-17T08:58:57.304Z,9.73
2023-01-17T09:01:24.696Z,9.20
2023-01-17T09:03:52.320Z,9.37
2023-01-17T09:06:19.704Z,9.17
2023-01-17T09:08:48.116Z,9.50
2023-01-17T09:11:17.689Z,9.23
2023-01-17T09:13:51.139Z,9.47
2023-01-17T09:16:18.903Z,9.23
2023-01-17T09:18:47.266Z,9.50
2023-01-17T09:21:17.614Z,9.53
2023-01-17T09:23:49.216Z,9.50
2023-01-17T09:26:22.886Z,8.67
2023-01-17T09:28:55.871Z,10.13
2023-01-17T09:31:27.270Z,7.77
2023-01-17T09:33:57.031Z,8.67
2023-01-17T09:36:29.035Z,8.27
2023-01-17T09:39:01.066Z,9.30
2023-01-17T09:42:02.323Z,8.83
2023-01-17T09:44:54.147Z,9.00
2023-01-17T09:47:42.449Z,8.47
2023-01-17T09:50:20.661Z,8.40
2023-01-17T09:52:48.209Z,8.60
2023-01-17T09:55:18.096Z,8.53
2023-01-17T09:58:08.394Z,8.63
2023-01-17T10:00:50.504Z,8.33
2023-01-17T10:03:44.978Z,8.30
2023-01-17T10:06:36.958Z,8.37
2023-01-17T10:09:34.244Z,7.97
2023-01-17T10:12:29.247Z,8.30
2023-01-17T10:15:39.548Z,8.67
2023-01-17T10:18:29.843Z,8.03
2023-01-17T10:22:23.196Z,7.97
2023-01-17T10:24:55.952Z,8.10
2023-01-17T10:27:34.320Z,6.70
2023-01-17T10:30:13.574Z,7.03
2023-01-17T10:32:50.115Z,6.80
2023-01-17T10:35:31.260Z,6.87
2023-01-17T10:38:04.038Z,6.60
2023-01-17T10:40:42.829Z,6.33
2023-01-17T10:43:25.940Z,6.83
2023-01-17T10:45:56.555Z,6.60
2023-01-17T10:48:44.761Z,6.63
2023-01-17T10:52:00.498Z,7.03
2023-01-17T10:54:51.768Z,6.13
2023-01-17T10:57:25.828Z,6.13
2023-01-17T11:00:01.576Z,5.97
2023-01-17T11:02:36.964Z,5.90
2023-01-17T11:05:22.041Z,5.77
2023-01-17T11:08:08.260Z,5.80
2023-01-17T11:10:42.474Z,5.30
2023-01-17T11:13:35.639Z,5.37
2023-01-17T11:16:10.899Z,5.10
2023-01-17T11:18:40.428Z,4.80
2023-01-17T11:21:24.363Z,5.17
2023-01-17T11:23:59.173Z,5.20
2023-01-17T11:26:34.754Z,4.90
2023-01-17T11:29:27.843Z,5.00
2023-01-17T11:31:56.489Z,4.80
2023-01-17T11:34:27.241Z,4.43
2023-01-17T11:37:31.095Z,5.00
2023-01-17T11:40:25.704Z,5.33
2023-01-17T11:43:11.610Z,4.30
2023-01-17T11:45:40.793Z,4.07
2023-01-17T11:48:13.514Z,4.13
2023-01-17T11:50:48.798Z,4.53
2023-01-17T11:53:24.680Z,4.40
2023-01-17T11:56:10.644Z,4.30
2023-01-17T11:58:42.401Z,4.07
2023-01-17T12:01:46.259Z,4.37
2023-01-17T12:04:36.684Z,3.80
2023-01-17T12:07:35.975Z,4.03
2023-01-17T12:10:19.853Z,3.67
2023-01-17T12:13:42.623Z,3.83
2023-01-17T12:16:43.703Z,3.90
2023-01-17T12:19:38.966Z,3.77
2023-01-17T12:22:35.266Z,3.97
2023-01-17T12:25:15.089Z,3.70
2023-01-17T12:28:22.363Z,3.67
2023-01-17T12:31:28.912Z,3.80
2023-01-17T12:34:14.111Z,3.63
2023-01-17T12:36:55.162Z,3.73
2023-01-17T12:39:32.061Z,3.60
2023-01-17T12:42:22.349Z,3.90
2023-01-17T12:45:20.325Z,3.60
2023-01-17T12:47:57.636Z,3.80
2023-01-17T12:50:49.216Z,3.77
2023-01-17T12:53:46.934Z,3.73
2023-01-17T12:56:27.402Z,3.93
2023-01-17T12:59:35.391Z,3.60
2023-01-17T13:02:14.893Z,3.80
2023-01-17T13:04:59.303Z,3.57
2023-01-17T13:08:01.570Z,3.10
2023-01-17T13:10:39.821Z,2.80
2023-01-17T13:13:25.802Z,2.80
2023-01-17T13:16:00.584Z,3.40
2023-01-17T13:18:30.105Z,2.93
2023-01-17T13:21:10.586Z,2.87
2023-01-17T13:23:53.178Z,3.07
2023-01-17T13:27:10.455Z,3.60
2023-01-17T13:30:16.622Z,2.90
2023-01-17T13:33:02.726Z,2.93
2023-01-17T13:35:58.320Z,2.73
2023-01-17T13:39:04.256Z,2.90
2023-01-17T13:41:56.746Z,2.43
2023-01-17T13:44:30.295Z,2.93
2023-01-17T13:47:23.843Z,3.30
2023-01-17T13:49:56.577Z,2.80
2023-01-17T13:52:26.814Z,3.00
2023-01-17T13:54:59.557Z,2.87
2023-01-17T13:57:29.371Z,2.90
2023-01-17T14:00:00.986Z,3.20
2023-01-17T14:02:37.974Z,2.80
2023-01-17T14:05:41.936Z,3.33
2023-01-17T14:08:21.997Z,3.20
2023-01-17T14:11:09.794Z,3.23
2023-01-17T14:13:39.955Z,3.20
2023-01-17T14:16:22.583Z,3.30
2023-01-17T14:27:20.155Z,2.93
2023-01-17T14:29:54.017Z,3.40
2023-01-17T14:32:35.488Z,3.10
2023-01-17T14:35:05.321Z,3.80
2023-01-17T14:37:46.629Z,3.53
2023-01-17T14:40:21.517Z,3.70
2023-01-17T14:43:04.629Z,3.13
2023-01-17T14:45:36.092Z,3.30
2023-01-17T14:48:08.076Z,3.33
2023-01-17T14:50:41.759Z,3.10
2023-01-17T14:53:12.253Z,3.50
2023-01-17T14:55:56.779Z,3.17
2023-01-17T14:58:37.824Z,2.47
2023-01-17T15:01:16.155Z,2.70
2023-01-17T15:03:57.651Z,3.00
2023-01-17T15:06:39.376Z,3.07
2023-01-17T15:09:28.601Z,3.00
2023-01-17T15:12:00.482Z,2.80
2023-01-17T15:14:37.909Z,2.97
2023-01-17T15:17:21.684Z,3.23
2023-01-17T15:19:57.744Z,2.80
2023-01-17T15:22:26.975Z,3.20
2023-01-17T15:24:55.088Z,3.23
2023-01-17T15:27:25.192Z,3.43
2023-01-17T15:29:54.197Z,3.43
2023-01-17T15:32:28.256Z,3.27
2023-01-17T15:35:00.524Z,3.27
2023-01-17T15:37:37.661Z,3.37
2023-01-17T15:40:24.364Z,2.73
2023-01-17T15:42:59.694Z,2.90
2023-01-17T15:45:33.887Z,4.07
2023-01-17T15:48:41.807Z,3.93
2023-01-17T15:51:13.263Z,3.80
2023-01-17T15:53:43.335Z,3.40
2023-01-17T15:56:33.358Z,3.90
2023-01-17T15:59:38.910Z,3.57
2023-01-17T16:02:24.469Z,3.37
2023-01-17T16:04:54.839Z,3.60
2023-01-17T16:07:36.452Z,3.90
2023-01-17T16:10:21.011Z,4.23
2023-01-17T16:12:51.668Z,4.20
2023-01-17T16:15:23.384Z,4.30
2023-01-17T16:17:55.432Z,5.00
2023-01-17T16:20:30.395Z,4.47
2023-01-17T16:22:59.616Z,4.27
2023-01-17T16:25:32.542Z,5.83
2023-01-17T16:28:06.054Z,5.47
2023-01-17T16:30:38.770Z,5.93
2023-01-17T16:33:15.616Z,5.17
2023-01-17T16:35:43.297Z,5.20
2023-01-17T16:38:36.713Z,5.83
2023-01-17T16:41:04.836Z,5.20
2023-01-17T16:43:32.269Z,5.33
2023-01-17T16:46:01.840Z,4.50
2023-01-17T16:48:29.200Z,5.20
2023-01-17T16:50:56.522Z,5.30
2023-01-17T16:53:27.525Z,5.63
2023-01-17T17:00:13.142Z,7.07
2023-01-17T17:02:40.974Z,7.07
2023-01-17T17:05:10.854Z,7.83
2023-01-17T17:07:46.551Z,10.13
2023-01-17T17:10:19.682Z,9.07
2023-01-17T17:12:47.816Z,8.40
2023-01-17T17:15:15.259Z,8.93
2023-01-17T17:17:43.963Z,10.37
2023-01-17T17:20:17.761Z,11.10
2023-01-17T17:22:52.844Z,11.30
2023-01-17T17:29:32.509Z,11.00
2023-01-17T17:31:59.878Z,10.27
2023-01-17T17:34:28.448Z,9.40
2023-01-17T17:36:55.867Z,9.23
2023-01-17T17:39:26.049Z,8.33
2023-01-17T17:46:03.373Z,6.70
2023-01-17T17:48:31.034Z,5.90
2023-01-17T17:51:02.609Z,6.13
2023-01-17T17:53:30.697Z,7.07
2023-01-17T17:56:11.383Z,7.47
2023-01-17T17:58:40.039Z,8.47
2023-01-17T18:05:18.041Z,8.00
2023-01-17T18:07:45.654Z,8.07
2023-01-17T18:10:13.227Z,8.00
2023-01-17T18:16:51.816Z,8.50
2023-01-17T18:19:25.920Z,10.00
2023-01-17T18:21:56.825Z,8.53
2023-01-17T18:24:27.150Z,11.43
2023-01-17T18:31:09.271Z,10.57
2023-01-17T18:33:39.021Z,13.93
2023-01-17T18:36:12.056Z,12.50
2023-01-17T18:38:47.291Z,12.87
2023-01-17T18:41:19.713Z,14.10
2023-01-17T18:43:52.047Z,12.37
2023-01-17T18:46:20.663Z,10.67
2023-01-17T18:48:51.113Z,11.00
2023-01-17T18:51:20.841Z,10.13
2023-01-17T18:53:50.208Z,10.07
2023-01-17T18:56:21.444Z,12.30
2023-01-17T18:58:50.750Z,12.23
2023-01-17T19:01:34.313Z,16.03
2023-01-17T19:04:05.545Z,15.70
2023-01-17T19:06:39.868Z,16.10
2023-01-17T19:09:09.547Z,13.73
2023-01-17T19:11:39.615Z,13.67
2023-01-17T19:14:07.820Z,11.47
2023-01-17T19:16:41.446Z,13.67
2023-01-17T19:19:14.561Z,14.53
2023-01-17T19:21:45.172Z,16.53
2023-01-17T19:24:14.523Z,14.43
2023-01-17T19:26:43.370Z,15.40
2023-01-17T19:29:11.108Z,14.43
2023-01-17T19:31:43.318Z,13.73
2023-01-17T19:34:14.117Z,14.90
2023-01-17T19:36:45.076Z,21.40
2023-01-17T19:39:15.207Z,18.80
2023-01-17T19:41:45.866Z,18.83
2023-01-17T19:44:16.605Z,18.43
2023-01-17T19:46:45.726Z,15.83
2023-01-17T19:49:13.228Z,14.97
2023-01-17T19:51:41.079Z,14.80
2023-01-17T19:54:08.618Z,17.33
2023-01-17T19:56:36.561Z,15.33
2023-01-17T19:59:04.141Z,16.27
2023-01-17T20:01:34.131Z,15.97
2023-01-17T20:04:12.998Z,17.83
2023-01-17T20:10:40.538Z,13.93
2023-01-17T20:13:07.937Z,14.33
2023-01-17T20:15:37.959Z,13.97
2023-01-17T20:18:05.520Z,12.97
2023-01-17T20:24:42.660Z,10.53
2023-01-17T20:31:23.476Z,12.37
2023-01-17T20:38:02.347Z,11.37
2023-01-17T20:40:32.263Z,13.13
2023-01-17T20:43:05.903Z,11.57
2023-01-17T20:45:35.533Z,13.10
2023-01-17T20:48:04.997Z,10.67
2023-01-17T20:55:56.725Z,12.33
2023-01-17T20:58:23.956Z,12.10
2023-01-17T21:00:52.595Z,11.47
2023-01-17T21:03:19.813Z,12.07
2023-01-17T21:05:48.684Z,12.00
2023-01-17T21:08:18.818Z,12.93
2023-01-17T21:10:51.001Z,12.80
2023-01-17T21:13:33.075Z,13.33
2023-01-17T21:16:00.658Z,13.77
2023-01-17T21:18:32.859Z,13.47
2023-01-17T21:21:10.904Z,10.53
2023-01-17T21:23:40.991Z,13.03
2023-01-17T21:26:12.561Z,12.13
2023-01-17T21:28:43.829Z,11.83
2023-01-17T21:31:25.257Z,12.60
2023-01-17T21:34:05.782Z,12.30
2023-01-17T21:36:41.470Z,13.07
2023-01-17T21:39:15.943Z,12.73
2023-01-17T21:44:36.726Z,12.37
2023-01-17T21:47:04.585Z,12.33
2023-01-17T21:49:32.727Z,12.53
2023-01-17T21:56:14.438Z,12.00
2023-01-17T21:58:44.512Z,12.90
2023-01-17T22:01:22.934Z,11.50
2023-01-17T22:04:03.177Z,12.17
2023-01-17T22:06:43.372Z,14.20
2023-01-17T22:09:10.681Z,11.93
2023-01-17T22:11:38.049Z,13.70
2023-01-17T22:14:05.600Z,12.90
2023-01-17T22:16:33.375Z,12.90
2023-01-17T22:19:03.761Z,13.63
2023-01-17T22:21:31.298Z,15.10
2023-01-17T22:24:06.820Z,15.53
2023-01-17T22:26:43.450Z,14.97
2023-01-17T22:29:11.628Z,14.73
2023-01-17T22:31:39.432Z,14.63
2023-01-17T22:34:15.231Z,14.57
2023-01-17T22:36:42.951Z,15.37
2023-01-17T22:39:13.848Z,14.87
2023-01-17T22:41:42.693Z,13.33
2023-01-17T22:44:10.054Z,13.90
2023-01-17T22:46:38.675Z,14.20
2023-01-17T22:49:10.501Z,13.43
2023-01-17T22:51:39.002Z,16.00
2023-01-17T22:54:06.313Z,13.07
2023-01-17T22:56:33.967Z,13.40
2023-01-17T22:59:02.135Z,13.33
2023-01-17T23:01:33.031Z,12.77
2023-01-17T23:04:04.183Z,14.60
2023-01-17T23:06:40.685Z,13.73
2023-01-17T23:09:14.519Z,13.93
2023-01-17T23:11:50.031Z,13.57
2023-01-17T23:14:53.736Z,13.27
2023-01-17T23:17:42.701Z,11.63
2023-01-17T23:26:58.265Z,13.30
2023-01-17T23:29:25.488Z,15.73
2023-01-17T23:31:52.598Z,13.93
2023-01-17T23:34:19.777Z,13.40
2023-01-17T23:36:46.998Z,15.90
2023-01-17T23:39:14.181Z,14.30
2023-01-17T23:41:59.538Z,12.77
2023-01-17T23:44:31.792Z,14.77
2023-01-17T23:47:02.251Z,14.50
2023-01-17T23:49:31.479Z,15.30
2023-01-17T23:51:58.613Z,16.47
2023-01-17T23:54:25.914Z,14.00
2023-01-17T23:56:53.665Z,15.03
2023-01-17T23:59:20.932Z,15.10
